createdAt,value
2017-12-06T00:02:28.304Z,6.10
2017-12-06T00:07:29.984Z,6.10
2017-12-06T00:12:38.253Z,6.20
2017-12-06T00:17:40.516Z,6.10
2017-12-06T00:22:42.053Z,6.10
2017-12-06T00:27:43.576Z,6.10
2017-12-06T00:32:45.841Z,6.10
2017-12-06T00:37:47.344Z,6.00
2017-12-06T00:42:48.910Z,6.10
2017-12-06T00:47:50.432Z,6.10
2017-12-06T00:52:51.965Z,6.10
2017-12-06T00:57:53.500Z,6.10
2017-12-06T01:02:55.744Z,6.00
2017-12-06T01:07:57.246Z,5.90
2017-12-06T01:12:58.820Z,6.10
2017-12-06T01:18:01.054Z,6.00
2017-12-06T01:23:02.560Z,6.00
2017-12-06T01:28:04.085Z,6.10
2017-12-06T01:33:05.649Z,6.10
2017-12-06T01:38:07.168Z,6.00
2017-12-06T01:43:09.628Z,6.10
2017-12-06T01:48:11.153Z,6.10
2017-12-06T01:53:12.652Z,6.00
2017-12-06T01:58:14.153Z,6.00
2017-12-06T02:03:16.405Z,6.10
2017-12-06T02:08:17.944Z,6.00
2017-12-06T02:13:19.418Z,6.10
2017-12-06T02:18:20.909Z,6.00
2017-12-06T02:23:22.452Z,6.10
2017-12-06T02:28:23.944Z,6.10
2017-12-06T02:33:25.432Z,6.10
2017-12-06T02:38:27.706Z,6.10
2017-12-06T02:59:38.508Z,6.10
2017-12-06T03:04:40.744Z,6.10
2017-12-06T03:09:42.253Z,6.00
2017-12-06T03:14:43.752Z,6.10
2017-12-06T03:19:45.246Z,6.10
2017-12-06T03:24:46.773Z,6.10
2017-12-06T03:29:49.025Z,6.00
2017-12-06T03:34:50.545Z,6.00
2017-12-06T03:39:52.049Z,6.00
2017-12-06T03:44:53.617Z,6.10
2017-12-06T03:49:55.134Z,6.10
2017-12-06T03:54:56.683Z,6.10
2017-12-06T03:59:58.944Z,6.10
2017-12-06T04:05:00.453Z,6.10
2017-12-06T04:10:02.008Z,6.10
2017-12-06T04:15:04.271Z,6.10
2017-12-06T04:20:05.776Z,6.00
2017-12-06T04:25:07.257Z,6.10
2017-12-06T04:30:08.756Z,6.10
2017-12-06T04:35:10.285Z,6.20
2017-12-06T04:40:11.830Z,6.20
2017-12-06T04:45:14.048Z,6.20
2017-12-06T04:50:15.686Z,6.10
2017-12-06T04:55:17.969Z,6.10
2017-12-06T05:00:20.191Z,6.10
2017-12-06T05:05:21.709Z,6.00
2017-12-06T05:10:23.969Z,6.20
2017-12-06T05:15:25.514Z,6.10
2017-12-06T05:20:27.036Z,6.10
2017-12-06T05:25:29.430Z,6.10
2017-12-06T05:30:30.922Z,6.10
2017-12-06T05:35:32.442Z,6.10
2017-12-06T05:40:34.722Z,6.10
2017-12-06T05:45:36.253Z,6.10
2017-12-06T05:50:37.904Z,6.10
2017-12-06T05:55:39.402Z,6.20
2017-12-06T06:00:40.948Z,6.20
2017-12-06T06:05:42.486Z,6.20
2017-12-06T06:10:43.994Z,6.10
2017-12-06T06:15:45.580Z,6.10
2017-12-06T06:20:47.092Z,6.10
2017-12-06T06:25:48.624Z,6.20
2017-12-06T06:30:50.308Z,6.10
2017-12-06T06:35:52.597Z,6.20
2017-12-06T06:40:54.163Z,6.20
2017-12-06T06:45:56.505Z,6.30
2017-12-06T06:50:58.154Z,6.20
2017-12-06T06:55:59.686Z,6.30
2017-12-06T07:01:01.268Z,6.30
2017-12-06T07:06:02.799Z,6.30
2017-12-06T07:11:04.329Z,6.30
2017-12-06T07:16:05.913Z,6.30
2017-12-06T07:21:07.489Z,6.40
2017-12-06T07:26:09.077Z,6.40
2017-12-06T07:31:10.603Z,6.40
2017-12-06T07:36:12.100Z,6.40
2017-12-06T07:41:13.649Z,6.60
2017-12-06T07:46:15.260Z,6.60
2017-12-06T07:51:16.763Z,6.70
2017-12-06T07:56:18.273Z,6.70
2017-12-06T08:01:19.768Z,6.70
2017-12-06T08:06:22.042Z,6.70
2017-12-06T08:11:23.529Z,6.70
2017-12-06T08:16:25.765Z,6.60
2017-12-06T08:21:27.304Z,6.50
2017-12-06T08:26:29.013Z,6.60
2017-12-06T08:31:30.551Z,6.80
2017-12-06T08:36:32.083Z,6.80
2017-12-06T08:41:34.333Z,6.80
2017-12-06T08:46:35.893Z,6.80
2017-12-06T08:51:37.408Z,6.80
2017-12-06T08:56:38.913Z,6.70
2017-12-06T09:01:40.468Z,6.80
2017-12-06T09:06:42.164Z,6.80
2017-12-06T09:11:43.641Z,6.90
2017-12-06T09:16:45.349Z,6.80
2017-12-06T09:21:46.861Z,6.90
2017-12-06T09:26:48.352Z,7.00
2017-12-06T09:31:49.850Z,6.90
2017-12-06T09:36:51.379Z,7.00
2017-12-06T09:41:52.892Z,7.00
2017-12-06T09:46:54.405Z,7.00
2017-12-06T09:51:56.091Z,7.00
2017-12-06T09:56:57.633Z,7.10
2017-12-06T10:01:59.207Z,7.20
2017-12-06T10:07:00.745Z,7.20
2017-12-06T10:12:02.254Z,7.30
2017-12-06T10:17:03.741Z,7.20
2017-12-06T10:22:05.270Z,7.30
2017-12-06T10:27:06.768Z,7.20
2017-12-06T10:32:08.294Z,7.30
2017-12-06T10:37:09.826Z,7.40
2017-12-06T10:42:12.095Z,7.60
2017-12-06T10:47:14.376Z,7.60
2017-12-06T10:52:16.644Z,7.70
2017-12-06T10:57:25.171Z,7.60
2017-12-06T11:02:26.739Z,7.60
2017-12-06T11:07:28.296Z,7.70
2017-12-06T11:12:29.781Z,7.70
2017-12-06T11:17:31.317Z,7.60
2017-12-06T11:22:32.880Z,7.70
2017-12-06T11:27:34.360Z,7.70
2017-12-06T11:32:35.858Z,7.80
2017-12-06T11:37:37.368Z,7.80
2017-12-06T11:42:38.923Z,7.80
2017-12-06T11:47:40.488Z,7.90
2017-12-06T11:52:42.013Z,7.90
2017-12-06T11:57:43.561Z,7.90
2017-12-06T12:02:45.299Z,8.00
2017-12-06T12:07:46.813Z,8.00
2017-12-06T12:12:48.414Z,8.10
2017-12-06T12:17:50.675Z,8.20
2017-12-06T12:22:52.214Z,8.10
2017-12-06T12:27:53.734Z,8.20
2017-12-06T12:32:56.017Z,8.10
2017-12-06T12:37:58.368Z,8.10
2017-12-06T12:42:59.866Z,8.10
2017-12-06T12:48:01.372Z,8.20
2017-12-06T12:53:02.915Z,8.20
2017-12-06T12:58:05.212Z,8.10
2017-12-06T13:03:06.798Z,8.00
2017-12-06T13:08:08.375Z,8.10
2017-12-06T13:13:09.897Z,8.20
2017-12-06T13:18:12.217Z,8.20
2017-12-06T13:23:13.747Z,8.20
2017-12-06T13:28:16.005Z,8.10
2017-12-06T13:33:17.518Z,8.10
2017-12-06T13:38:19.041Z,8.20
2017-12-06T13:43:20.537Z,8.20
2017-12-06T13:48:22.773Z,8.20
2017-12-06T13:53:24.293Z,8.10
2017-12-06T13:58:26.700Z,8.10
2017-12-06T14:03:28.252Z,8.00
2017-12-06T14:08:29.772Z,8.10
2017-12-06T14:13:31.400Z,8.00
2017-12-06T14:18:32.878Z,8.00
2017-12-06T14:23:34.420Z,8.00
2017-12-06T14:28:36.695Z,8.00
2017-12-06T14:33:39.013Z,8.00
2017-12-06T14:38:40.553Z,7.90
2017-12-06T14:43:42.946Z,7.90
2017-12-06T14:48:44.518Z,7.80
2017-12-06T14:53:46.169Z,8.00
2017-12-06T14:58:48.484Z,7.70
2017-12-06T15:03:49.997Z,7.70
2017-12-06T15:08:51.502Z,7.70
2017-12-06T15:13:53.029Z,7.80
2017-12-06T15:18:54.554Z,7.80
2017-12-06T15:23:56.092Z,7.70
2017-12-06T15:28:58.618Z,7.70
2017-12-06T15:34:00.149Z,7.70
2017-12-06T15:39:02.946Z,7.70
2017-12-06T15:44:05.194Z,7.70
2017-12-06T15:49:06.694Z,7.60
2017-12-06T15:54:08.993Z,7.60
2017-12-06T15:59:12.319Z,7.60
2017-12-06T16:04:14.086Z,7.50
2017-12-06T16:09:15.584Z,7.60
2017-12-06T16:14:17.112Z,7.60
2017-12-06T16:19:19.369Z,7.50
2017-12-06T16:24:20.929Z,7.50
2017-12-06T16:29:22.393Z,7.50
2017-12-06T16:34:23.925Z,7.50
2017-12-06T16:39:25.495Z,7.50
2017-12-06T16:44:27.034Z,7.50
2017-12-06T16:49:28.572Z,7.50
2017-12-06T16:54:30.595Z,7.40
2017-12-06T16:59:32.796Z,7.40
2017-12-06T17:04:34.346Z,7.40
2017-12-06T17:09:35.833Z,7.30
2017-12-06T17:14:37.365Z,7.30
2017-12-06T17:19:38.866Z,7.20
2017-12-06T17:24:40.561Z,7.10
2017-12-06T17:30:00.769Z,7.10
2017-12-06T17:35:02.355Z,7.00
2017-12-06T17:40:05.113Z,6.90
2017-12-06T17:45:06.625Z,6.90
2017-12-06T17:50:23.908Z,6.90
2017-12-06T17:55:26.364Z,6.80
2017-12-06T18:00:32.412Z,6.90
2017-12-06T18:05:34.266Z,6.90
2017-12-06T18:10:36.028Z,6.80
2017-12-06T18:15:38.257Z,6.80
2017-12-06T18:20:39.896Z,7.00
2017-12-06T18:25:42.473Z,7.00
2017-12-06T18:30:45.262Z,6.90
2017-12-06T18:35:47.139Z,6.80
2017-12-06T18:40:48.902Z,6.90
2017-12-06T18:45:51.471Z,6.70
2017-12-06T18:50:53.014Z,6.60
2017-12-06T18:55:55.129Z,6.50
2017-12-06T19:00:56.731Z,6.40
2017-12-06T19:05:59.678Z,6.50
2017-12-06T19:11:02.519Z,6.60
2017-12-06T19:16:04.341Z,6.60
2017-12-06T19:21:06.688Z,6.70
2017-12-06T19:26:11.875Z,6.50
2017-12-06T19:31:14.205Z,6.40
2017-12-06T19:36:16.096Z,6.40
2017-12-06T19:41:18.413Z,6.50
2017-12-06T19:46:22.036Z,6.50
2017-12-06T19:51:26.128Z,6.50
2017-12-06T19:56:29.337Z,6.50
2017-12-06T20:01:34.012Z,6.40
2017-12-06T20:06:38.420Z,6.40
2017-12-06T20:11:43.667Z,6.40
2017-12-06T20:21:53.161Z,6.50
2017-12-06T20:26:55.033Z,6.40
2017-12-06T20:31:57.543Z,6.30
2017-12-06T20:37:00.925Z,6.20
2017-12-06T20:42:04.569Z,6.20
2017-12-06T20:47:07.496Z,6.30
2017-12-06T20:52:11.458Z,6.40
2017-12-06T21:02:26.085Z,6.20
2017-12-06T21:07:27.739Z,6.20
2017-12-06T21:12:30.067Z,6.20
2017-12-06T21:17:32.647Z,6.20
2017-12-06T21:22:34.944Z,6.10
2017-12-06T21:27:37.311Z,6.00
2017-12-06T21:32:42.194Z,6.10
2017-12-06T21:37:43.753Z,6.10
2017-12-06T21:42:46.112Z,6.10
2017-12-06T21:47:48.265Z,6.10
2017-12-06T21:52:49.848Z,6.10
2017-12-06T21:57:51.478Z,6.00
2017-12-06T22:02:54.743Z,5.90
2017-12-06T22:07:56.291Z,5.90
2017-12-06T22:12:58.348Z,5.90
2017-12-06T22:17:59.942Z,5.90
2017-12-06T22:23:01.485Z,5.90
2017-12-06T22:28:03.039Z,6.00
2017-12-06T22:33:04.571Z,5.90
2017-12-06T22:38:06.126Z,5.80
2017-12-06T22:43:07.689Z,5.80
2017-12-06T22:48:09.269Z,5.80
2017-12-06T22:53:10.836Z,5.70
2017-12-06T22:58:12.447Z,5.70
2017-12-06T23:03:13.986Z,5.60
2017-12-06T23:08:15.575Z,5.60
2017-12-06T23:13:17.071Z,5.60
2017-12-06T23:18:18.612Z,5.50
2017-12-06T23:23:20.107Z,5.50
2017-12-06T23:28:21.616Z,5.60
2017-12-06T23:33:23.165Z,5.50
2017-12-06T23:38:24.721Z,5.50
2017-12-06T23:43:26.287Z,5.50
2017-12-06T23:48:27.819Z,5.50
2017-12-06T23:53:29.356Z,5.60
2017-12-06T23:58:30.880Z,5.50
